Time;durP1;ratioP1;P1;durP2;ratioP2;P2;SDS_P1;SDS_P2;PMS_P1;PMS_P2;Temp;Humidity;BMP_temperature;BMP_pressure;BME280_temperature;BME280_humidity;BME280_pressure;Samples;Min_cycle;Max_cycle;Signal;HPM_P1;HPM_P2
2022/11/24 00:00:05;;;;;;;7.22;5.38;;;;;;;20.06;49.14;95934.97;10496595;28;20110;-43
2022/11/24 00:05:45;;;;;;;6.47;5.50;;;;;;;20.05;49.25;95933.41;10497282;28;20095;-43
2022/11/24 00:11:15;;;;;;;6.03;4.97;;;;;;;20.04;49.33;95931.06;10496614;28;20049;-45
2022/11/24 00:16:36;;;;;;;5.28;4.70;;;;;;;20.02;49.53;95925.22;10497126;28;20110;-43
2022/11/24 00:21:55;;;;;;;7.22;5.30;;;;;;;20.01;49.42;95937.16;10496861;28;20071;-44
2022/11/24 00:27:14;;;;;;;5.15;4.65;;;;;;;19.98;49.34;95954.84;10510082;28;20051;-46
2022/11/24 00:32:34;;;;;;;6.35;5.15;;;;;;;19.96;49.29;95951.72;10496112;28;20061;-44
2022/11/24 00:37:54;;;;;;;6.07;4.97;;;;;;;19.95;49.27;95945.53;10496536;28;20052;-43
2022/11/24 00:43:14;;;;;;;5.82;4.55;;;;;;;19.94;49.40;95949.34;10502389;28;20118;-43
2022/11/24 00:48:34;;;;;;;6.40;4.88;;;;;;;19.92;49.35;95948.91;10517650;28;20388;-43
2022/11/24 00:53:55;;;;;;;5.43;4.93;;;;;;;19.91;49.18;95947.34;10504117;28;20126;-44
2022/11/24 00:59:14;;;;;;;5.68;4.90;;;;;;;19.89;49.32;95954.22;10503419;28;20059;-46
2022/11/24 01:04:34;;;;;;;5.57;5.05;;;;;;;19.88;49.33;95960.78;10517341;28;20040;-43
2022/11/24 01:09:53;;;;;;;6.25;4.75;;;;;;;19.86;49.52;95955.72;10517161;28;20487;-44
2022/11/24 01:15:12;;;;;;;6.38;4.68;;;;;;;19.85;49.29;95962.25;10503277;28;20059;-44
2022/11/24 01:20:31;;;;;;;5.28;4.32;;;;;;;19.83;49.34;95951.00;10502410;28;20052;-43
2022/11/24 01:25:51;;;;;;;5.35;4.82;;;;;;;19.83;49.31;95966.44;10502304;28;20052;-44
2022/11/24 01:31:10;;;;;;;5.10;4.60;;;;;;;19.80;49.33;95969.81;10502221;28;20052;-44
2022/11/24 01:36:30;;;;;;;5.20;4.70;;;;;;;19.77;49.27;95971.28;10515816;28;20495;-44
2022/11/24 01:41:51;;;;;;;6.13;4.57;;;;;;;19.77;49.27;95981.31;10502148;28;20053;-43
2022/11/24 01:47:28;;;;;;;5.20;4.55;;;;;;;19.75;49.23;95987.06;10502091;28;20060;-45
2022/11/24 01:52:50;;;;;;;5.68;4.90;;;;;;;19.74;49.41;96001.72;10500636;28;20061;-44
2022/11/24 01:58:14;;;;;;;4.65;4.25;;;;;;;19.73;49.30;95997.44;10501482;28;20057;-43
2022/11/24 02:03:36;;;;;;;5.10;4.60;;;;;;;19.72;49.23;96004.00;10514777;28;20047;-43
2022/11/24 02:08:59;;;;;;;6.07;4.68;;;;;;;19.70;49.19;95998.13;10500339;28;20384;-43
2022/11/24 02:14:21;;;;;;;4.53;4.03;;;;;;;19.69;49.24;96001.94;10501049;28;20064;-43
2022/11/24 02:19:55;;;;;;;4.95;4.25;;;;;;;19.67;49.25;96004.19;10500757;28;20049;-43
2022/11/24 02:25:24;;;;;;;4.90;4.35;;;;;;;19.65;49.23;96014.56;10513978;28;20044;-43
2022/11/24 02:30:43;;;;;;;4.32;3.92;;;;;;;19.65;49.31;96011.84;10499774;28;20060;-42
2022/11/24 02:36:03;;;;;;;5.03;4.40;;;;;;;19.62;49.25;96015.22;10499154;28;20056;-43
2022/11/24 02:41:24;;;;;;;4.50;4.10;;;;;;;19.62;49.09;96017.94;10499120;28;20491;-43
2022/11/24 02:46:43;;;;;;;4.35;3.83;;;;;;;19.60;49.43;96026.41;10498881;28;20414;-45
2022/11/24 02:52:03;;;;;;;4.50;3.70;;;;;;;19.59;49.31;96041.03;10499429;28;20052;-43
2022/11/24 02:57:23;;;;;;;4.63;4.18;;;;;;;19.56;49.26;96030.91;10498354;28;20548;-43
2022/11/24 03:02:42;;;;;;;4.43;4.03;;;;;;;19.56;49.25;96030.91;10498315;28;20052;-43
2022/11/24 03:08:02;;;;;;;4.45;3.97;;;;;;;19.54;49.24;96028.56;10499127;28;20053;-43
2022/11/24 03:13:21;;;;;;;5.05;3.97;;;;;;;19.52;49.26;96021.91;10498628;28;20060;-43
2022/11/24 03:18:41;;;;;;;4.15;3.78;;;;;;;19.51;49.30;96031.94;10498634;28;20044;-44
2022/11/24 03:24:00;;;;;;;4.78;4.13;;;;;;;19.50;49.34;96033.06;10498319;28;20052;-45
2022/11/24 03:29:19;;;;;;;4.20;3.80;;;;;;;19.46;49.37;96032.16;10497636;28;20097;-43
2022/11/24 03:34:39;;;;;;;4.25;3.85;;;;;;;19.46;49.24;96034.88;10511437;28;20045;-44
2022/11/24 03:40:01;;;;;;;3.75;3.45;;;;;;;19.45;49.28;96038.72;10497782;28;20098;-43
2022/11/24 03:45:20;;;;;;;4.75;3.83;;;;;;;19.43;49.28;96037.47;10510847;28;20044;-43
2022/11/24 03:50:39;;;;;;;4.10;3.80;;;;;;;19.42;49.27;96044.78;10497593;28;20055;-44
2022/11/24 03:55:59;;;;;;;4.28;3.72;;;;;;;19.41;49.32;96042.44;10497467;28;20061;-44
2022/11/24 04:01:19;;;;;;;4.03;3.63;;;;;;;19.39;49.25;96042.78;10499374;28;20056;-43
2022/11/24 04:06:38;;;;;;;4.88;3.90;;;;;;;19.38;49.28;96041.19;10497308;28;20118;-43
2022/11/24 04:17:36;;;;;;;3.85;3.55;;;;;;;19.35;49.21;96042.66;10504029;28;20118;-44
2022/11/24 04:22:55;;;;;;;4.03;3.72;;;;;;;19.33;49.39;96057.66;10505575;28;20403;-43
2022/11/24 04:28:15;;;;;;;4.00;3.60;;;;;;;19.33;49.29;96065.75;10504693;28;20495;-45
2022/11/24 04:33:34;;;;;;;3.95;3.60;;;;;;;19.31;49.32;96065.31;10504924;28;20113;-43
2022/11/24 04:38:54;;;;;;;3.85;3.45;;;;;;;19.30;49.33;96074.53;10504034;28;20052;-43
2022/11/24 04:44:13;;;;;;;4.30;3.90;;;;;;;19.28;49.37;96077.56;10517927;28;20048;-43
2022/11/24 04:49:32;;;;;;;3.55;3.25;;;;;;;19.26;49.37;96087.91;10503734;28;20097;-42
2022/11/24 04:54:52;;;;;;;3.63;3.33;;;;;;;19.25;49.19;96097.16;10504215;28;20118;-45
2022/11/24 05:00:12;;;;;;;3.83;3.42;;;;;;;19.25;49.33;96107.16;10503273;28;20057;-44
2022/11/24 05:05:32;;;;;;;3.60;3.30;;;;;;;19.23;49.28;96109.41;10517288;28;20403;-43
2022/11/24 05:10:51;;;;;;;3.38;3.08;;;;;;;19.21;49.32;96112.47;10502940;28;20495;-44
2022/11/24 05:16:11;;;;;;;6.30;3.22;;;;;;;19.21;49.23;96117.84;10503355;28;20053;-43
2022/11/24 05:21:30;;;;;;;5.30;3.53;;;;;;;19.20;49.88;96118.19;10502941;28;20048;-43
2022/11/24 05:26:50;;;;;;;3.55;3.25;;;;;;;19.20;50.26;96127.06;10494111;28;20584;-45
2022/11/24 05:32:10;;;;;;;5.93;3.75;;;;;;;19.20;49.93;96137.88;10502311;28;20441;-43
2022/11/24 05:37:29;;;;;;;4.53;3.38;;;;;;;19.20;49.87;96127.06;10502275;28;20060;-43
2022/11/24 05:42:49;;;;;;;4.32;3.33;;;;;;;19.20;49.89;96132.47;10501697;28;20053;-43
2022/11/24 05:48:13;;;;;;;4.82;3.20;;;;;;;19.21;50.25;96133.25;10499404;28;20487;-43
2022/11/24 05:53:32;;;;;;;3.78;3.33;;;;;;;19.21;50.01;96138.66;10497945;28;20495;-43
2022/11/24 05:58:52;;;;;;;3.92;3.17;;;;;;;19.21;50.04;96150.25;10510498;28;20052;-43
2022/11/24 06:04:11;;;;;;;5.43;3.17;;;;;;;19.22;50.03;96151.03;10501679;28;20057;-43
2022/11/24 06:09:31;;;;;;;4.72;2.92;;;;;;;19.22;50.15;96161.84;10501134;28;20048;-43
2022/11/24 06:14:50;;;;;;;13.65;5.10;;;;;;;19.22;50.13;96159.91;10500380;28;20105;-43
2022/11/24 06:20:10;;;;;;;16.52;6.80;;;;;;;19.24;50.41;96167.69;10497488;28;20125;-43
2022/11/24 06:25:30;;;;;;;15.75;6.80;;;;;;;19.24;50.48;96178.50;10497724;28;20063;-44
2022/11/24 06:30:49;;;;;;;23.83;7.35;;;;;;;19.26;50.60;96179.72;10498492;28;20053;-44
2022/11/24 06:36:12;;;;;;;18.50;6.97;;;;;;;19.28;50.57;96184.78;10496136;28;20071;-43
2022/11/24 06:41:32;;;;;;;18.38;7.38;;;;;;;19.29;50.75;96191.78;10494294;28;20052;-43
2022/11/24 06:46:52;;;;;;;17.48;6.97;;;;;;;19.32;50.70;96204.59;10496697;28;20056;-43
2022/11/24 06:52:11;;;;;;;15.52;7.10;;;;;;;19.32;50.67;96210.00;10498720;28;20048;-43
2022/11/24 06:57:31;;;;;;;18.73;7.43;;;;;;;19.33;50.74;96206.97;10500926;28;20053;-43
2022/11/24 07:02:51;;;;;;;17.13;7.40;;;;;;;19.34;50.69;96213.94;10554493;28;20101;-44
2022/11/24 07:08:11;;;;;;;18.30;6.88;;;;;;;19.36;50.62;96222.50;10540891;28;20048;-44
2022/11/24 07:13:30;;;;;;;15.82;6.70;;;;;;;19.38;50.61;96227.56;10554053;28;20124;-44
2022/11/24 07:18:51;;;;;;;16.33;7.50;;;;;;;19.39;50.71;96229.16;10540324;28;20051;-44
2022/11/24 07:24:11;;;;;;;15.95;7.38;;;;;;;19.41;50.75;96239.63;10540203;28;20126;-43
2022/11/24 07:29:30;;;;;;;15.25;7.07;;;;;;;19.43;49.77;96243.56;10539281;28;20052;-44
2022/11/24 07:34:50;;;;;;;16.17;7.10;;;;;;;19.46;49.81;96250.19;10539917;28;20465;-44
2022/11/24 07:40:10;;;;;;;19.40;7.07;;;;;;;19.47;49.66;96252.56;10539624;28;20044;-43
2022/11/24 07:45:29;;;;;;;17.02;6.80;;;;;;;19.49;49.56;96258.41;10553090;28;20555;-43
2022/11/24 07:50:49;;;;;;;13.88;6.63;;;;;;;19.51;49.46;96260.78;10538993;28;20121;-43
2022/11/24 07:56:08;;;;;;;14.20;6.63;;;;;;;19.53;49.54;96270.13;10553108;28;20608;-43
2022/11/24 08:01:28;;;;;;;12.30;6.13;;;;;;;19.54;49.63;96266.31;10538056;28;20063;-43
2022/11/24 08:06:49;;;;;;;12.07;5.93;;;;;;;19.58;49.68;96271.03;10538930;28;20072;-44
2022/11/24 08:12:09;;;;;;;11.05;5.50;;;;;;;19.60;49.44;96271.47;10538085;28;20055;-43
2022/11/24 08:17:28;;;;;;;12.68;6.20;;;;;;;19.61;49.59;96270.38;10538492;28;20056;-44
2022/11/24 08:22:47;;;;;;;14.75;5.97;;;;;;;19.63;49.34;96273.50;10538375;28;20044;-44
2022/11/24 08:28:07;;;;;;;11.50;5.90;;;;;;;19.66;49.32;96264.72;10538232;28;20048;-44
2022/11/24 08:33:26;;;;;;;11.40;5.70;;;;;;;19.67;49.39;96279.81;10538374;28;20461;-43
2022/11/24 08:38:47;;;;;;;12.18;5.57;;;;;;;19.69;49.39;96288.38;10538098;28;20081;-45
2022/11/24 08:44:09;;;;;;;12.00;5.57;;;;;;;19.71;49.34;96291.53;10537554;28;20093;-44
2022/11/24 08:49:28;;;;;;;11.88;5.32;;;;;;;19.73;49.39;96298.19;10538310;28;20048;-44
2022/11/24 08:54:49;;;;;;;9.77;5.35;;;;;;;19.76;49.22;96283.25;10538157;28;20056;-43
2022/11/24 09:00:09;;;;;;;9.88;5.20;;;;;;;19.78;49.36;96290.97;10537297;28;20059;-43
2022/11/24 09:05:28;;;;;;;10.02;5.68;;;;;;;19.80;49.12;96302.25;10545255;28;20059;-45
2022/11/24 09:10:48;;;;;;;8.65;5.00;;;;;;;19.82;49.21;96303.50;10530099;28;20052;-44
2022/11/24 09:16:13;;;;;;;9.50;4.90;;;;;;;19.84;49.29;96295.84;10544576;28;20495;-44
2022/11/24 09:21:36;;;;;;;8.13;4.97;;;;;;;19.86;49.37;96295.50;10544912;28;20059;-43
2022/11/24 09:26:56;;;;;;;8.73;5.07;;;;;;;19.87;49.22;96305.97;10544966;28;20453;-43
2022/11/24 09:32:15;;;;;;;8.18;4.78;;;;;;;19.90;49.14;96310.72;10544769;28;20403;-43
2022/11/24 09:37:35;;;;;;;8.50;4.88;;;;;;;19.92;49.12;96308.47;10543843;28;20495;-43
2022/11/24 09:43:00;;;;;;;8.75;4.95;;;;;;;19.93;49.08;96312.75;10544109;28;20044;-44
2022/11/24 09:48:30;;;;;;;7.93;4.75;;;;;;;19.96;49.20;96308.56;10528891;28;20047;-45
2022/11/24 09:53:56;;;;;;;9.05;4.30;;;;;;;19.97;49.05;96309.34;10543876;28;20464;-45
2022/11/24 09:59:19;;;;;;;7.15;4.60;;;;;;;20.00;49.12;96311.41;10527866;28;20066;-43
2022/11/24 10:04:41;;;;;;;11.10;5.15;;;;;;;20.01;48.99;96315.66;10543384;28;20255;-43
2022/11/24 10:10:24;;;;;;;7.10;4.30;;;;;;;20.03;49.04;96308.00;10528206;28;20127;-43
2022/11/24 10:15:47;;;;;;;7.32;4.70;;;;;;;20.05;48.97;96309.25;10527704;28;20051;-44
2022/11/24 10:21:25;;;;;;;6.07;4.15;;;;;;;20.08;49.08;96310.47;10556274;28;20089;-44
2022/11/24 10:27:02;;;;;;;6.95;4.00;;;;;;;20.10;48.85;96313.63;10526651;28;20418;-44
2022/11/24 10:32:40;;;;;;;7.18;4.30;;;;;;;20.11;48.75;96315.19;10542214;28;20055;-43
2022/11/24 10:38:20;;;;;;;6.57;4.13;;;;;;;20.13;48.67;96312.94;10542027;28;20047;-44
2022/11/24 10:43:41;;;;;;;8.65;4.38;;;;;;;20.14;48.83;96307.19;10510991;28;20052;-44
2022/11/24 10:49:04;;;;;;;6.07;4.30;;;;;;;20.16;48.75;96314.97;10541554;28;20048;-44
2022/11/24 10:54:23;;;;;;;5.97;4.00;;;;;;;20.19;48.64;96311.59;10540746;28;20063;-44
2022/11/24 10:59:43;;;;;;;6.38;4.13;;;;;;;20.21;48.48;96305.84;10540261;28;20056;-43
2022/11/24 11:05:22;;;;;;;7.18;4.50;;;;;;;20.22;48.58;96305.50;10540973;28;20063;-44
2022/11/24 11:10:43;;;;;;;7.80;4.15;;;;;;;20.23;48.75;96309.78;10540103;28;20058;-43
2022/11/24 11:16:21;;;;;;;6.00;3.95;;;;;;;20.25;48.62;96315.66;10540490;28;20056;-43
2022/11/24 11:21:41;;;;;;;;;;;;;;;20.26;48.36;96311.81;10525566;28;20048;-43
2022/11/24 11:27:07;;;;;;;5.80;3.65;;;;;;;20.27;48.43;96318.81;10539535;28;19920;-43
2022/11/24 11:32:27;;;;;;;6.88;3.90;;;;;;;20.30;48.49;96323.50;10524239;28;20052;-44
2022/11/24 11:37:47;;;;;;;5.15;3.58;;;;;;;20.32;48.45;96315.06;10539143;28;20048;-45
2022/11/24 11:43:32;;;;;;;5.97;3.65;;;;;;;20.32;48.51;96326.66;10524638;28;20063;-43
2022/11/24 11:48:51;;;;;;;6.93;3.72;;;;;;;20.34;48.40;96327.13;10539701;28;20044;-44
2022/11/24 11:54:26;;;;;;;6.55;3.85;;;;;;;20.37;48.40;96328.38;10539547;28;20048;-44
2022/11/24 12:00:04;;;;;;;5.13;3.40;;;;;;;20.38;48.26;96329.94;10538579;28;20056;-44
2022/11/24 12:05:45;;;;;;;6.13;3.47;;;;;;;20.39;48.23;96338.84;10523486;28;20564;-43
2022/11/24 12:11:26;;;;;;;4.65;3.40;;;;;;;20.41;48.31;96344.72;10539012;28;20297;-44
2022/11/24 12:17:16;;;;;;;4.68;3.58;;;;;;;20.42;48.27;96338.16;10538848;28;20102;-43
2022/11/24 12:23:01;;;;;;;6.40;3.70;;;;;;;20.44;48.16;96335.91;10538064;28;20491;-44
2022/11/24 12:28:30;;;;;;;5.93;3.22;;;;;;;20.44;48.16;96333.97;10538684;28;20059;-44
2022/11/24 12:34:17;;;;;;;6.25;3.20;;;;;;;20.46;48.01;96334.41;10538581;28;20124;-43
2022/11/24 12:39:52;;;;;;;3.80;2.88;;;;;;;20.47;48.25;96338.72;10546950;28;20427;-44
2022/11/24 12:45:14;;;;;;;4.28;3.00;;;;;;;20.46;48.12;96345.25;10546904;28;20083;-44
2022/11/24 12:50:37;;;;;;;4.93;3.05;;;;;;;20.47;48.13;96349.53;10544630;28;20453;-44
2022/11/24 12:56:05;;;;;;;4.53;3.00;;;;;;;20.47;48.19;96337.94;10530954;28;20052;-43
2022/11/24 13:01:46;;;;;;;4.55;3.10;;;;;;;20.47;48.15;96348.75;10529904;28;20144;-44
2022/11/24 13:07:15;;;;;;;3.75;3.10;;;;;;;20.46;48.14;96339.84;10545701;28;20063;-43
2022/11/24 13:12:54;;;;;;;4.25;2.83;;;;;;;20.45;48.05;96346.38;10544690;28;20548;-44
2022/11/24 13:19:19;;;;;;;3.50;2.78;;;;;;;20.46;48.08;96358.78;10545178;28;20139;-44
2022/11/24 13:24:39;;;;;;;5.63;2.70;;;;;;;20.44;48.26;96350.22;10502793;28;20127;-44
2022/11/24 13:29:58;;;;;;;3.55;2.97;;;;;;;20.43;48.10;96345.94;10529714;28;20213;-44
2022/11/24 13:35:18;;;;;;;4.30;3.00;;;;;;;20.44;48.21;96354.84;10529306;28;20055;-43
2022/11/24 13:40:39;;;;;;;3.15;2.58;;;;;;;20.42;48.23;96352.47;10544269;28;20051;-45
2022/11/24 13:45:59;;;;;;;3.95;2.95;;;;;;;20.42;48.20;96360.59;10528737;28;20063;-43
2022/11/24 13:51:23;;;;;;;3.72;2.60;;;;;;;20.41;48.10;96356.31;10543306;28;20048;-43
2022/11/24 13:56:42;;;;;;;4.18;3.15;;;;;;;20.41;48.19;96363.66;10543758;28;20110;-44
2022/11/24 14:02:16;;;;;;;4.07;2.97;;;;;;;20.39;48.14;96365.91;10527597;28;20055;-43
2022/11/24 14:07:36;;;;;;;3.70;2.88;;;;;;;20.38;48.19;96365.09;10528090;28;20056;-43
2022/11/24 14:13:21;;;;;;;3.05;2.40;;;;;;;20.38;48.15;96367.03;10543145;28;20056;-43
2022/11/24 14:18:43;;;;;;;4.32;2.78;;;;;;;20.35;48.22;96377.41;10556300;28;20044;-43
2022/11/24 14:24:11;;;;;;;3.83;2.75;;;;;;;20.35;48.16;96387.44;10542116;28;20062;-44
2022/11/24 14:29:32;;;;;;;;;;;;;;;20.34;48.31;96388.56;10542278;28;20048;-44
2022/11/24 14:34:52;;;;;;;3.45;2.60;;;;;;;20.32;48.26;96391.59;10542402;28;19920;-44
2022/11/24 14:40:37;;;;;;;3.22;2.45;;;;;;;20.32;48.30;96397.00;10541960;28;20044;-44
2022/11/24 14:45:59;;;;;;;4.00;2.42;;;;;;;20.30;48.17;96404.66;10541734;28;20081;-43
2022/11/24 14:51:41;;;;;;;2.80;2.33;;;;;;;20.29;48.34;96403.09;10541531;28;20097;-44
2022/11/24 14:57:05;;;;;;;3.22;2.67;;;;;;;20.27;48.35;96405.38;10540712;28;20541;-44
2022/11/24 15:02:43;;;;;;;2.83;2.10;;;;;;;20.26;48.29;96411.88;10538282;28;20040;-45
2022/11/24 15:08:03;;;;;;;2.70;2.33;;;;;;;20.24;48.28;96427.66;10554352;28;20036;-43
2022/11/24 15:13:23;;;;;;;2.85;2.30;;;;;;;20.24;48.40;96421.47;10540728;28;20055;-44
2022/11/24 15:18:48;;;;;;;3.53;2.05;;;;;;;20.23;48.41;96426.09;10539776;28;20522;-44
2022/11/24 15:24:15;;;;;;;2.90;2.28;;;;;;;20.21;48.34;96428.34;10540455;28;20056;-43
2022/11/24 15:29:35;;;;;;;2.57;2.10;;;;;;;20.20;48.48;96439.50;10540094;28;20056;-44
2022/11/24 15:34:54;;;;;;;2.63;2.17;;;;;;;20.18;48.38;96444.47;10539880;28;20048;-42
2022/11/24 15:40:14;;;;;;;3.10;2.20;;;;;;;20.18;48.41;96447.16;10539642;28;20048;-44
2022/11/24 15:45:34;;;;;;;2.67;2.20;;;;;;;20.15;48.50;96448.63;10553003;28;20042;-43
2022/11/24 15:50:55;;;;;;;2.47;2.17;;;;;;;20.12;48.44;96452.78;10539420;28;20052;-44
2022/11/24 15:56:24;;;;;;;2.58;2.28;;;;;;;20.12;48.51;96460.13;10539421;28;20052;-45
2022/11/24 16:01:45;;;;;;;2.58;2.00;;;;;;;20.10;48.46;96462.38;10538465;28;20086;-44
2022/11/24 16:07:05;;;;;;;2.75;2.08;;;;;;;20.10;48.49;96473.19;10539096;28;20062;-44
2022/11/24 16:12:24;;;;;;;2.83;2.25;;;;;;;20.09;48.58;96479.69;10538740;28;20054;-43
2022/11/24 16:17:44;;;;;;;3.30;2.40;;;;;;;20.06;48.47;96481.16;10538802;28;20056;-43
2022/11/24 16:23:04;;;;;;;2.80;2.00;;;;;;;20.01;46.55;96488.69;10552050;28;20553;-43
2022/11/24 16:28:23;;;;;;;4.57;2.30;;;;;;;20.01;47.65;96497.59;10538591;28;20449;-44
2022/11/24 16:33:46;;;;;;;4.55;2.17;;;;;;;20.01;47.74;96496.81;10551998;28;20047;-44
2022/11/24 16:39:06;;;;;;;2.80;1.90;;;;;;;20.01;47.91;96503.00;10537535;28;20055;-44
2022/11/24 16:44:25;;;;;;;3.17;2.40;;;;;;;19.99;47.98;96505.25;10538367;28;20460;-43
2022/11/24 16:49:45;;;;;;;3.10;2.17;;;;;;;20.00;48.28;96506.06;10538331;28;20048;-44
2022/11/24 16:55:06;;;;;;;3.95;1.90;;;;;;;19.99;48.36;96518.00;10551474;28;20050;-43
2022/11/24 17:00:25;;;;;;;4.00;2.00;;;;;;;19.98;48.60;96519.91;10542630;28;20423;-43
2022/11/24 17:05:59;;;;;;;7.35;2.00;;;;;;;19.98;49.04;96521.84;10551259;28;20075;-44
2022/11/24 17:11:20;;;;;;;2.72;2.10;;;;;;;19.97;49.26;96531.84;10537693;28;20123;-44
2022/11/24 17:16:40;;;;;;;6.38;2.35;;;;;;;19.95;49.52;96532.19;10536919;28;20498;-44
2022/11/24 17:22:00;;;;;;;4.38;1.95;;;;;;;19.95;49.51;96540.31;10537245;28;20052;-43
2022/11/24 17:27:20;;;;;;;4.05;1.90;;;;;;;19.94;49.72;96544.13;10544156;28;20060;-44
2022/11/24 17:32:39;;;;;;;4.38;2.38;;;;;;;19.92;49.72;96551.78;10543689;28;20059;-45
2022/11/24 17:37:59;;;;;;;3.55;1.90;;;;;;;19.90;48.69;96550.53;10557880;28;20044;-44
2022/11/24 17:43:19;;;;;;;3.03;2.13;;;;;;;19.89;48.79;96559.75;10543624;28;20624;-43
2022/11/24 17:48:39;;;;;;;2.40;2.03;;;;;;;19.88;49.07;96560.88;10544233;28;20063;-45
2022/11/24 17:53:59;;;;;;;3.05;2.10;;;;;;;19.85;49.29;96559.63;10543275;28;20704;-44
2022/11/24 17:59:18;;;;;;;3.67;2.42;;;;;;;19.85;49.34;96562.31;10543063;28;20056;-49
2022/11/24 18:04:38;;;;;;;4.05;2.30;;;;;;;19.85;49.36;96567.72;10555728;28;20036;-45
2022/11/24 18:09:58;;;;;;;5.18;2.10;;;;;;;19.85;49.52;96572.34;10543347;28;20051;-45
2022/11/24 18:15:17;;;;;;;8.10;2.00;;;;;;;19.83;49.60;96574.59;10506907;28;20064;-44
2022/11/24 18:20:37;;;;;;;3.83;1.98;;;;;;;19.82;49.53;96581.91;10540418;28;20052;-45
2022/11/24 18:25:59;;;;;;;7.60;2.22;;;;;;;19.81;49.54;96588.44;10556127;28;20429;-47
2022/11/24 18:31:21;;;;;;;4.68;1.92;;;;;;;19.81;49.80;96599.25;10542282;28;20052;-43
2022/11/24 18:36:40;;;;;;;5.95;2.20;;;;;;;19.78;48.72;96608.03;10555609;28;20432;-44
2022/11/24 18:42:00;;;;;;;5.05;2.22;;;;;;;19.77;48.96;96598.31;10540943;28;20515;-45
2022/11/24 18:47:19;;;;;;;6.70;2.55;;;;;;;19.76;48.86;96602.16;10555071;28;20126;-44
2022/11/24 18:52:39;;;;;;;8.55;2.80;;;;;;;19.73;48.93;96595.50;10541181;28;20155;-43
2022/11/24 18:57:59;;;;;;;7.60;2.60;;;;;;;19.73;48.75;96600.09;10540768;28;20064;-42
2022/11/24 19:03:18;;;;;;;4.57;2.40;;;;;;;19.70;48.76;96603.47;10540677;28;20044;-43
2022/11/24 19:08:37;;;;;;;3.85;2.30;;;;;;;19.70;49.18;96606.16;10540062;28;20617;-45
2022/11/24 19:13:57;;;;;;;5.10;2.45;;;;;;;19.69;49.44;96607.28;10540146;28;20060;-45
2022/11/24 19:19:17;;;;;;;7.55;2.40;;;;;;;19.68;49.68;96611.06;10540214;28;20047;-43
2022/11/24 19:24:37;;;;;;;3.00;2.10;;;;;;;19.66;49.74;96611.44;10539783;28;20500;-45
2022/11/24 19:29:56;;;;;;;3.58;2.00;;;;;;;19.67;50.00;96625.72;10540119;28;20048;-44
2022/11/24 19:35:16;;;;;;;3.78;2.00;;;;;;;19.66;50.06;96632.22;10539948;28;20066;-44
2022/11/24 19:40:35;;;;;;;7.75;2.28;;;;;;;19.65;49.94;96633.38;10539773;28;20130;-45
2022/11/24 19:46:06;;;;;;;3.45;2.22;;;;;;;19.64;50.06;96631.78;10537683;28;20062;-45
2022/11/24 19:51:29;;;;;;;6.30;2.17;;;;;;;19.64;50.20;96648.00;10539177;28;20407;-48
2022/11/24 19:56:49;;;;;;;5.75;2.03;;;;;;;19.63;50.31;96651.81;10538894;28;20055;-48
2022/11/24 20:02:08;;;;;;;4.25;2.15;;;;;;;19.62;50.38;96663.75;10535318;28;20056;-45
2022/11/24 20:07:27;;;;;;;3.47;2.00;;;;;;;19.62;50.46;96652.94;10538152;28;20063;-46
2022/11/24 20:12:46;;;;;;;4.53;2.00;;;;;;;19.61;50.99;96664.88;10523558;28;20044;-49
2022/11/24 20:18:06;;;;;;;9.25;2.20;;;;;;;19.60;50.69;96668.69;10542591;28;20490;-43
2022/11/24 20:23:26;;;;;;;6.53;2.40;;;;;;;19.58;50.64;96666.31;10552079;28;20478;-44
2022/11/24 20:28:46;;;;;;;5.22;2.00;;;;;;;19.58;51.02;96670.91;10540552;28;20094;-46
2022/11/24 20:34:07;;;;;;;6.38;2.13;;;;;;;19.55;50.93;96675.06;10535513;28;20502;-44
2022/11/24 20:39:26;;;;;;;3.70;1.90;;;;;;;19.54;50.81;96671.59;10535650;28;20071;-46
2022/11/24 20:44:46;;;;;;;3.45;1.90;;;;;;;19.53;50.93;96678.09;10551732;28;20044;-45
2022/11/24 20:50:06;;;;;;;3.90;1.92;;;;;;;19.52;51.05;96684.63;10551605;28;20047;-44
2022/11/24 20:55:27;;;;;;;4.15;1.85;;;;;;;19.51;51.04;96688.44;10537473;28;20503;-43
2022/11/24 21:00:46;;;;;;;5.85;1.98;;;;;;;19.50;51.06;96689.56;10548136;28;20511;-44
2022/11/24 21:06:06;;;;;;;3.28;1.92;;;;;;;19.48;51.15;96699.91;10559099;28;20048;-45
2022/11/24 21:11:26;;;;;;;2.35;1.80;;;;;;;19.48;51.12;96705.31;10559046;28;20101;-46
2022/11/24 21:16:46;;;;;;;4.95;1.75;;;;;;;19.48;51.22;96710.72;10545901;28;20105;-46
2022/11/24 21:22:06;;;;;;;4.15;2.10;;;;;;;19.46;51.15;96707.53;10542432;28;20040;-46
2022/11/24 21:27:25;;;;;;;3.65;1.98;;;;;;;19.45;51.05;96715.97;10543963;28;20064;-45
2022/11/24 21:32:45;;;;;;;4.63;1.90;;;;;;;19.45;51.08;96724.09;10541005;28;20048;-47
2022/11/24 21:38:05;;;;;;;3.35;1.83;;;;;;;19.43;51.06;96729.81;10543904;28;20062;-44
2022/11/24 21:43:26;;;;;;;2.75;2.00;;;;;;;19.43;51.19;96734.44;10544328;28;20059;-44
2022/11/24 21:48:46;;;;;;;2.42;1.77;;;;;;;19.41;51.14;96737.44;10544264;28;20067;-45
2022/11/24 21:54:08;;;;;;;1.85;1.70;;;;;;;19.40;51.11;96730.44;10544004;28;20059;-45
2022/11/24 21:59:27;;;;;;;1.88;1.50;;;;;;;19.39;51.31;96736.97;10551166;28;20052;-45
2022/11/24 22:04:47;;;;;;;2.92;1.80;;;;;;;19.38;51.33;96746.19;10543105;28;20552;-44
2022/11/24 22:10:07;;;;;;;2.53;1.85;;;;;;;19.37;51.48;96747.31;10542980;28;20051;-46
2022/11/24 22:15:27;;;;;;;3.25;1.70;;;;;;;19.36;51.55;96745.72;10542446;28;20527;-46
2022/11/24 22:20:54;;;;;;;3.42;1.98;;;;;;;19.35;51.67;96753.03;10542934;28;20048;-47
2022/11/24 22:26:15;;;;;;;3.40;1.80;;;;;;;19.32;51.68;96745.56;10542736;28;20052;-45
2022/11/24 22:31:35;;;;;;;2.97;1.95;;;;;;;19.32;51.72;96748.28;10542595;28;20101;-44
2022/11/24 22:36:54;;;;;;;3.47;1.70;;;;;;;19.31;51.75;96749.41;10542407;28;20415;-46
2022/11/24 22:42:13;;;;;;;3.13;2.08;;;;;;;19.30;51.87;96749.72;10541965;28;20048;-43
2022/11/24 22:47:33;;;;;;;4.05;1.85;;;;;;;19.29;51.93;96761.66;10555410;28;20047;-45
2022/11/24 22:52:52;;;;;;;2.53;1.80;;;;;;;19.28;51.91;96762.75;10555172;28;20044;-45
2022/11/24 22:58:12;;;;;;;3.63;1.77;;;;;;;19.28;52.00;96770.84;10540793;28;20503;-44
2022/11/24 23:03:35;;;;;;;2.42;1.52;;;;;;;19.26;52.08;96771.19;10554798;28;20422;-45
2022/11/24 23:08:56;;;;;;;2.20;1.67;;;;;;;19.25;52.10;96772.31;10541189;28;20051;-47
2022/11/24 23:14:15;;;;;;;1.80;1.55;;;;;;;19.24;52.10;96769.91;10541004;28;20097;-47
2022/11/24 23:19:35;;;;;;;3.72;1.70;;;;;;;19.22;52.18;96762.13;10539914;28;20051;-44
2022/11/24 23:24:54;;;;;;;3.05;1.50;;;;;;;19.22;52.05;96767.53;10539981;28;20548;-44
2022/11/24 23:30:13;;;;;;;2.00;1.45;;;;;;;19.21;52.04;96762.44;10540451;28;20047;-44
2022/11/24 23:35:33;;;;;;;2.15;1.60;;;;;;;19.20;52.07;96768.97;10540218;28;20122;-44
2022/11/24 23:40:56;;;;;;;2.60;1.60;;;;;;;19.18;52.23;96769.28;10539262;28;20044;-44
2022/11/24 23:46:22;;;;;;;2.22;1.52;;;;;;;19.18;52.26;96777.41;10539834;28;20059;-45
2022/11/24 23:51:41;;;;;;;2.22;1.60;;;;;;;19.15;52.25;96762.63;10539593;28;20114;-45
2022/11/24 23:57:01;;;;;;;2.20;1.40;;;;;;;19.15;52.23;96781.53;10539518;28;20052;-48
